createdAt,value
2019-04-04T00:00:55.617Z,99.90
2019-04-04T00:03:27.256Z,99.90
2019-04-04T00:05:59.099Z,99.90
2019-04-04T00:08:31.580Z,99.90
2019-04-04T00:11:05.775Z,99.90
2019-04-04T00:13:36.953Z,99.90
2019-04-04T00:16:07.976Z,99.90
2019-04-04T00:18:39.862Z,99.90
2019-04-04T00:21:11.906Z,99.90
2019-04-04T00:23:43.652Z,99.90
2019-04-04T00:26:16.126Z,99.90
2019-04-04T00:28:47.908Z,99.90
2019-04-04T00:31:19.598Z,99.90
2019-04-04T00:33:50.975Z,99.90
2019-04-04T00:36:23.158Z,99.90
2019-04-04T00:38:55.219Z,99.90
2019-04-04T00:41:27.128Z,99.90
2019-04-04T00:43:59.099Z,99.90
2019-04-04T00:46:30.899Z,99.90
2019-04-04T00:49:04.829Z,99.90
2019-04-04T00:51:38.687Z,99.90
2019-04-04T00:54:10.079Z,99.90
2019-04-04T00:56:41.690Z,99.90
2019-04-04T00:59:13.036Z,99.90
2019-04-04T01:01:44.580Z,99.90
2019-04-04T01:04:16.566Z,99.90
2019-04-04T01:06:48.337Z,99.90
2019-04-04T01:09:19.593Z,99.90
2019-04-04T01:11:51.874Z,99.90
2019-04-04T01:14:23.473Z,99.90
2019-04-04T01:16:55.788Z,99.90
2019-04-04T01:19:28.585Z,99.90
2019-04-04T01:22:00.243Z,99.90
2019-04-04T01:24:31.951Z,99.90
2019-04-04T01:27:04.188Z,99.90
2019-04-04T01:29:37.143Z,99.90
2019-04-04T01:32:08.704Z,99.90
2019-04-04T01:34:40.047Z,99.90
2019-04-04T01:37:12.230Z,99.90
2019-04-04T01:39:43.906Z,99.90
2019-04-04T01:42:16.071Z,99.90
2019-04-04T01:44:47.894Z,99.90
2019-04-04T01:47:19.786Z,99.90
2019-04-04T01:49:51.878Z,99.90
2019-04-04T01:52:27.838Z,99.90
2019-04-04T01:54:57.681Z,99.90
2019-04-04T01:57:29.257Z,99.90
2019-04-04T02:00:01.547Z,99.90
2019-04-04T02:02:33.100Z,99.90
2019-04-04T02:05:04.740Z,99.90
2019-04-04T02:07:36.278Z,99.90
2019-04-04T02:10:07.954Z,99.90
2019-04-04T02:12:40.105Z,99.90
2019-04-04T02:15:14.353Z,99.90
2019-04-04T02:17:46.120Z,99.90
2019-04-04T02:20:18.063Z,99.90
2019-04-04T02:22:49.574Z,99.90
2019-04-04T02:25:22.611Z,99.90
2019-04-04T02:27:53.873Z,99.90
2019-04-04T02:30:25.490Z,99.90
2019-04-04T02:33:00.413Z,99.90
2019-04-04T02:35:30.962Z,99.90
2019-04-04T02:38:02.309Z,99.90
2019-04-04T02:40:33.837Z,99.90
2019-04-04T02:43:05.197Z,99.90
2019-04-04T02:45:38.841Z,99.90
2019-04-04T02:48:09.777Z,99.90
2019-04-04T02:50:41.143Z,99.90
2019-04-04T02:53:13.549Z,99.90
2019-04-04T02:55:45.391Z,99.90
2019-04-04T02:58:17.203Z,99.90
2019-04-04T03:00:48.284Z,99.90
2019-04-04T03:03:19.266Z,99.90
2019-04-04T03:05:51.983Z,99.90
2019-04-04T03:08:23.702Z,99.90
2019-04-04T03:10:55.575Z,99.90
2019-04-04T03:13:31.136Z,99.90
2019-04-04T03:16:00.763Z,99.90
2019-04-04T03:18:34.822Z,99.90
2019-04-04T03:21:06.170Z,99.90
2019-04-04T03:23:37.849Z,99.90
2019-04-04T03:26:09.424Z,99.90
2019-04-04T03:28:41.367Z,99.90
2019-04-04T03:31:13.309Z,99.90
2019-04-04T03:33:45.408Z,99.90
2019-04-04T03:36:17.279Z,99.90
2019-04-04T03:38:49.321Z,99.90
2019-04-04T03:41:21.818Z,99.90
2019-04-04T03:43:53.191Z,99.90
2019-04-04T03:46:25.240Z,99.90
2019-04-04T03:48:57.161Z,99.90
2019-04-04T03:51:29.096Z,99.90
2019-04-04T03:54:02.923Z,99.90
2019-04-04T03:56:39.174Z,99.90
2019-04-04T03:59:07.562Z,99.90
2019-04-04T04:01:38.611Z,99.90
2019-04-04T04:04:10.152Z,99.90
2019-04-04T04:06:42.370Z,99.90
2019-04-04T04:09:16.077Z,99.90
2019-04-04T04:11:47.350Z,99.90
2019-04-04T04:14:21.672Z,99.90
2019-04-04T04:16:52.562Z,99.90
2019-04-04T04:19:24.748Z,99.90
2019-04-04T04:21:57.328Z,99.90
2019-04-04T04:24:30.417Z,99.90
2019-04-04T04:27:02.160Z,99.90
2019-04-04T04:29:34.987Z,99.90
2019-04-04T04:32:07.257Z,99.90
2019-04-04T04:34:38.870Z,99.90
2019-04-04T04:37:10.652Z,99.90
2019-04-04T04:39:42.011Z,99.90
2019-04-04T04:42:13.867Z,99.90
2019-04-04T04:44:46.105Z,99.90
2019-04-04T04:47:17.771Z,99.90
2019-04-04T04:49:48.934Z,99.90
2019-04-04T04:52:20.571Z,99.90
2019-04-04T04:54:52.333Z,99.90
2019-04-04T04:57:29.936Z,99.90
2019-04-04T04:59:58.018Z,99.90
2019-04-04T05:02:30.102Z,99.90
2019-04-04T05:05:01.945Z,99.90
2019-04-04T05:07:33.890Z,99.90
2019-04-04T05:10:06.253Z,99.90
2019-04-04T05:12:37.910Z,99.90
2019-04-04T05:15:10.015Z,99.90
2019-04-04T05:17:42.048Z,99.90
2019-04-04T05:20:14.208Z,99.90
2019-04-04T05:22:45.967Z,99.90
2019-04-04T05:25:17.713Z,99.90
2019-04-04T05:27:48.706Z,99.90
2019-04-04T05:30:21.450Z,99.90
2019-04-04T05:33:00.248Z,99.90
2019-04-04T05:35:33.478Z,99.90
2019-04-04T05:38:07.731Z,99.90
2019-04-04T05:40:38.885Z,99.90
2019-04-04T05:43:10.995Z,99.90
2019-04-04T05:45:44.957Z,99.90
2019-04-04T05:48:16.116Z,99.90
2019-04-04T05:50:47.446Z,99.90
2019-04-04T05:53:21.398Z,99.90
2019-04-04T05:55:52.208Z,99.90
2019-04-04T05:58:23.204Z,99.90
2019-04-04T06:00:57.727Z,99.90
2019-04-04T06:03:28.831Z,99.90
2019-04-04T06:06:01.403Z,99.90
2019-04-04T06:08:33.594Z,99.90
2019-04-04T06:11:05.747Z,99.90
2019-04-04T06:13:37.719Z,99.90
2019-04-04T06:16:09.172Z,99.90
2019-04-04T06:18:42.856Z,99.90
2019-04-04T06:21:13.995Z,99.90
2019-04-04T06:23:45.860Z,99.90
2019-04-04T06:26:17.538Z,99.90
2019-04-04T06:28:49.881Z,99.90
2019-04-04T06:31:21.751Z,99.90
2019-04-04T06:33:54.525Z,99.90
2019-04-04T06:36:25.826Z,99.90
2019-04-04T06:38:57.082Z,99.90
2019-04-04T06:41:32.017Z,99.90
2019-04-04T06:44:02.550Z,99.90
2019-04-04T06:46:34.125Z,99.90
2019-04-04T06:49:06.712Z,99.90
2019-04-04T06:51:38.054Z,99.90
2019-04-04T06:54:09.402Z,99.90
2019-04-04T06:56:41.050Z,99.90
2019-04-04T06:59:12.874Z,99.90
2019-04-04T07:01:44.662Z,99.90
2019-04-04T07:04:17.360Z,99.90
2019-04-04T07:06:49.300Z,99.90
2019-04-04T07:09:22.092Z,99.90
2019-04-04T07:11:53.657Z,99.90
2019-04-04T07:14:25.279Z,99.90
2019-04-04T07:16:57.154Z,99.90
2019-04-04T07:19:29.280Z,99.90
2019-04-04T07:22:01.109Z,99.90
2019-04-04T07:24:33.475Z,99.90
2019-04-04T07:27:04.948Z,99.90
2019-04-04T07:29:36.379Z,99.50
2019-04-04T07:32:09.392Z,96.90
2019-04-04T07:34:41.130Z,95.60
2019-04-04T07:37:12.351Z,93.90
2019-04-04T07:39:43.503Z,94.00
2019-04-04T07:42:16.249Z,91.40
2019-04-04T07:44:48.074Z,91.90
2019-04-04T07:47:19.433Z,92.50
2019-04-04T07:49:50.712Z,89.80
2019-04-04T07:52:22.372Z,86.00
2019-04-04T07:54:54.280Z,85.30
2019-04-04T07:57:26.410Z,85.00
2019-04-04T07:59:58.090Z,84.60
2019-04-04T08:02:30.086Z,87.60
2019-04-04T08:05:01.382Z,86.40
2019-04-04T08:07:32.983Z,86.30
2019-04-04T08:10:04.701Z,84.80
2019-04-04T08:12:36.319Z,85.60
2019-04-04T08:15:09.302Z,84.10
2019-04-04T08:17:41.287Z,84.10
2019-04-04T08:20:13.755Z,84.10
2019-04-04T08:22:45.532Z,85.40
2019-04-04T08:25:17.272Z,84.20
2019-04-04T08:27:48.253Z,85.00
2019-04-04T08:30:19.988Z,85.20
2019-04-04T08:32:52.204Z,84.70
2019-04-04T08:35:23.780Z,85.10
2019-04-04T08:37:55.722Z,89.40
2019-04-04T08:40:26.720Z,92.50
2019-04-04T08:42:58.474Z,96.20
2019-04-04T08:45:30.633Z,99.30
2019-04-04T08:48:02.259Z,99.90
2019-04-04T08:50:34.047Z,99.90
2019-04-04T08:53:05.062Z,99.90
2019-04-04T08:55:36.946Z,99.90
2019-04-04T08:58:10.138Z,99.90
2019-04-04T09:00:41.705Z,99.90
2019-04-04T09:03:13.338Z,99.90
2019-04-04T09:05:44.685Z,99.90
2019-04-04T09:08:15.962Z,99.90
2019-04-04T09:10:47.341Z,99.90
2019-04-04T09:13:18.952Z,99.90
2019-04-04T09:15:50.687Z,99.90
2019-04-04T09:18:22.027Z,99.90
2019-04-04T09:20:53.296Z,99.90
2019-04-04T09:23:24.400Z,99.90
2019-04-04T09:26:05.459Z,99.90
2019-04-04T09:28:29.142Z,99.90
2019-04-04T09:31:02.246Z,99.90
2019-04-04T09:33:34.558Z,99.90
2019-04-04T09:36:06.491Z,99.90
2019-04-04T09:38:39.168Z,99.90
2019-04-04T09:41:11.209Z,99.90
2019-04-04T09:43:42.206Z,99.90
2019-04-04T09:46:14.107Z,99.90
2019-04-04T09:48:45.789Z,99.90
2019-04-04T09:51:17.561Z,99.90
2019-04-04T09:53:53.167Z,99.90
2019-04-04T09:56:23.145Z,99.90
2019-04-04T09:58:55.219Z,99.90
2019-04-04T10:01:26.706Z,99.90
2019-04-04T10:03:58.380Z,99.90
2019-04-04T10:06:30.303Z,99.90
2019-04-04T10:09:14.777Z,99.90
2019-04-04T10:11:35.087Z,99.90
2019-04-04T10:14:06.431Z,99.90
2019-04-04T10:16:38.646Z,99.90
2019-04-04T10:19:10.202Z,99.90
2019-04-04T10:21:41.833Z,99.90
2019-04-04T10:24:13.711Z,99.90
2019-04-04T10:26:45.405Z,99.90
2019-04-04T10:29:17.203Z,99.90
2019-04-04T10:31:49.147Z,99.90
2019-04-04T10:34:20.794Z,99.90
2019-04-04T10:36:52.165Z,99.90
2019-04-04T10:39:29.377Z,99.90
2019-04-04T10:41:56.892Z,99.90
2019-04-04T10:44:28.822Z,99.90
2019-04-04T10:47:00.484Z,99.90
2019-04-04T10:49:32.882Z,99.90
2019-04-04T10:52:04.083Z,99.90
2019-04-04T10:54:35.366Z,99.90
2019-04-04T10:57:06.713Z,99.90
2019-04-04T10:59:38.172Z,99.90
2019-04-04T11:02:09.491Z,99.90
2019-04-04T11:04:41.026Z,99.90
2019-04-04T11:07:12.773Z,99.90
2019-04-04T11:09:44.032Z,99.90
2019-04-04T11:12:16.864Z,99.90
2019-04-04T11:14:48.711Z,99.90
2019-04-04T11:17:20.140Z,99.90
2019-04-04T11:19:52.015Z,99.90
2019-04-04T11:22:24.786Z,99.90
2019-04-04T11:24:56.162Z,99.90
2019-04-04T11:27:28.240Z,99.90
2019-04-04T11:30:00.516Z,99.90
2019-04-04T11:32:32.744Z,99.90
2019-04-04T11:35:05.644Z,99.90
2019-04-04T11:37:37.358Z,99.90
2019-04-04T11:40:09.579Z,99.90
2019-04-04T11:42:41.075Z,99.90
2019-04-04T11:45:12.677Z,99.90
2019-04-04T11:47:45.016Z,99.90
2019-04-04T11:50:16.911Z,99.90
2019-04-04T11:52:48.531Z,99.90
2019-04-04T11:55:19.896Z,99.90
2019-04-04T11:57:52.071Z,99.90
2019-04-04T12:00:30.912Z,99.90
2019-04-04T12:03:02.336Z,99.90
2019-04-04T12:05:33.687Z,99.90
2019-04-04T12:08:05.206Z,99.90
2019-04-04T12:10:36.332Z,99.90
2019-04-04T12:13:07.390Z,99.90
2019-04-04T12:15:39.216Z,99.90
2019-04-04T12:18:10.796Z,99.90
2019-04-04T12:20:43.526Z,99.90
2019-04-04T12:23:15.026Z,99.90
2019-04-04T12:25:46.984Z,99.90
2019-04-04T12:28:18.579Z,99.90
2019-04-04T12:30:49.915Z,99.90
2019-04-04T12:33:21.781Z,99.90
2019-04-04T12:35:53.644Z,99.90
2019-04-04T12:38:24.984Z,99.90
2019-04-04T12:40:56.289Z,99.90
2019-04-04T12:43:27.828Z,99.90
2019-04-04T12:46:00.387Z,99.90
2019-04-04T12:48:32.259Z,99.90
2019-04-04T12:51:03.359Z,99.90
2019-04-04T12:53:35.331Z,99.90
2019-04-04T12:56:07.080Z,99.90
2019-04-04T12:58:39.132Z,99.90
2019-04-04T13:01:10.786Z,99.90
2019-04-04T13:03:42.358Z,99.90
2019-04-04T13:06:14.100Z,99.90
2019-04-04T13:08:46.813Z,99.90
2019-04-04T13:11:18.551Z,99.90
2019-04-04T13:13:49.918Z,99.90
2019-04-04T13:16:21.265Z,99.90
2019-04-04T13:18:52.581Z,99.90
2019-04-04T13:21:23.915Z,99.90
2019-04-04T13:23:55.596Z,99.90
2019-04-04T13:26:27.452Z,99.90
2019-04-04T13:28:58.799Z,99.90
2019-04-04T13:31:30.453Z,99.90
2019-04-04T13:34:02.292Z,99.90
2019-04-04T13:36:36.586Z,99.90
2019-04-04T13:39:10.535Z,99.90
2019-04-04T13:41:42.502Z,99.90
2019-04-04T13:44:13.912Z,99.90
2019-04-04T13:46:45.828Z,99.90
2019-04-04T13:49:17.113Z,99.90
2019-04-04T13:51:48.498Z,99.90
2019-04-04T13:54:20.463Z,99.90
2019-04-04T13:56:52.229Z,99.90
2019-04-04T13:59:23.848Z,99.90
2019-04-04T14:01:55.765Z,99.90
2019-04-04T14:04:27.352Z,99.90
2019-04-04T14:07:02.444Z,99.90
2019-04-04T14:09:32.755Z,99.90
2019-04-04T14:12:04.162Z,99.90
2019-04-04T14:14:36.059Z,99.90
2019-04-04T14:17:08.283Z,99.90
2019-04-04T14:19:39.754Z,99.90
2019-04-04T14:22:11.090Z,99.90
2019-04-04T14:24:42.782Z,99.90
2019-04-04T14:27:14.198Z,99.90
2019-04-04T14:29:46.156Z,99.90
2019-04-04T14:32:17.210Z,99.90
2019-04-04T14:34:48.291Z,99.90
2019-04-04T14:37:19.646Z,99.90
2019-04-04T14:39:51.863Z,99.90
2019-04-04T14:42:23.452Z,99.90
2019-04-04T14:44:55.434Z,99.90
2019-04-04T14:47:28.169Z,99.90
2019-04-04T14:50:00.453Z,99.90
2019-04-04T14:52:31.957Z,99.90
2019-04-04T14:55:03.254Z,99.90
2019-04-04T14:57:34.904Z,99.90
2019-04-04T15:00:09.208Z,99.90
2019-04-04T15:02:40.766Z,99.90
2019-04-04T15:05:13.260Z,99.90
2019-04-04T15:07:45.118Z,99.90
2019-04-04T15:10:16.459Z,99.90
2019-04-04T15:12:48.343Z,99.90
2019-04-04T15:15:20.046Z,99.90
2019-04-04T15:17:51.341Z,99.90
2019-04-04T15:20:23.036Z,99.90
2019-04-04T15:22:54.166Z,99.90
2019-04-04T15:25:25.240Z,99.90
2019-04-04T15:27:56.568Z,99.90
2019-04-04T15:30:28.742Z,99.90
2019-04-04T15:33:02.562Z,99.90
2019-04-04T15:35:33.474Z,99.90
2019-04-04T15:38:05.695Z,99.90
2019-04-04T15:40:37.337Z,99.90
2019-04-04T15:43:09.374Z,99.90
2019-04-04T15:45:41.379Z,99.90
2019-04-04T15:48:12.699Z,99.90
2019-04-04T15:50:44.433Z,99.90
2019-04-04T15:53:16.105Z,99.90
2019-04-04T15:55:47.840Z,99.90
2019-04-04T15:58:19.433Z,99.90
2019-04-04T16:00:51.182Z,99.90
2019-04-04T16:03:22.747Z,99.90
2019-04-04T16:05:54.621Z,99.90
2019-04-04T16:08:26.223Z,99.90
2019-04-04T16:10:59.707Z,99.90
2019-04-04T16:13:31.228Z,99.90
2019-04-04T16:16:02.336Z,99.90
2019-04-04T16:18:33.897Z,99.90
2019-04-04T16:21:05.388Z,99.90
2019-04-04T16:23:37.465Z,99.90
2019-04-04T16:26:09.330Z,99.90
2019-04-04T16:28:40.346Z,99.90
2019-04-04T16:31:12.724Z,99.90
2019-04-04T16:33:44.323Z,99.90
2019-04-04T16:36:15.349Z,99.90
2019-04-04T16:38:46.632Z,99.90
2019-04-04T16:41:18.906Z,99.90
2019-04-04T16:43:50.530Z,99.90
2019-04-04T16:46:23.559Z,99.90
2019-04-04T16:48:55.186Z,99.90
2019-04-04T16:51:26.693Z,99.90
2019-04-04T16:53:58.265Z,99.90
2019-04-04T16:56:29.856Z,99.90
2019-04-04T16:59:01.502Z,99.90
2019-04-04T17:01:33.361Z,99.90
2019-04-04T17:04:04.921Z,99.90
2019-04-04T17:06:36.360Z,99.90
2019-04-04T17:09:09.306Z,99.90
2019-04-04T17:11:40.662Z,99.90
2019-04-04T17:14:11.720Z,99.90
2019-04-04T17:16:43.250Z,99.90
2019-04-04T17:19:14.583Z,99.90
2019-04-04T17:21:45.836Z,99.90
2019-04-04T17:24:17.839Z,99.90
2019-04-04T17:26:49.820Z,99.90
2019-04-04T17:29:21.452Z,99.90
2019-04-04T17:31:52.981Z,99.90
2019-04-04T17:34:25.065Z,99.90
2019-04-04T17:36:56.548Z,99.90
2019-04-04T17:39:28.262Z,99.90
2019-04-04T17:42:00.735Z,99.90
2019-04-04T17:44:32.954Z,99.90
2019-04-04T17:47:04.423Z,99.90
2019-04-04T17:49:36.937Z,99.90
2019-04-04T17:52:08.331Z,99.90
2019-04-04T17:54:40.650Z,99.90
2019-04-04T17:57:11.913Z,99.90
2019-04-04T17:59:43.236Z,99.90
2019-04-04T18:02:14.569Z,99.90
2019-04-04T18:04:48.467Z,99.90
2019-04-04T18:07:19.918Z,99.90
2019-04-04T18:09:52.473Z,99.90
2019-04-04T18:12:23.711Z,99.90
2019-04-04T18:14:56.705Z,99.90
2019-04-04T18:17:27.894Z,99.90
2019-04-04T18:19:59.289Z,99.90
2019-04-04T18:22:30.904Z,99.90
2019-04-04T18:25:02.678Z,99.90
2019-04-04T18:27:33.671Z,99.90
2019-04-04T18:30:07.574Z,99.90
2019-04-04T18:32:39.508Z,99.90
2019-04-04T18:35:11.796Z,99.90
2019-04-04T18:37:43.155Z,99.90
2019-04-04T18:40:14.657Z,99.90
2019-04-04T18:42:53.264Z,99.90
2019-04-04T18:45:20.140Z,99.90
2019-04-04T18:47:51.150Z,99.90
2019-04-04T18:50:23.010Z,99.90
2019-04-04T18:52:54.977Z,99.90
2019-04-04T18:55:27.285Z,99.90
2019-04-04T18:57:59.404Z,99.90
2019-04-04T19:00:31.761Z,99.90
2019-04-04T19:03:03.329Z,99.90
2019-04-04T19:05:34.666Z,99.90
2019-04-04T19:08:07.109Z,99.90
2019-04-04T19:10:39.232Z,99.90
2019-04-04T19:13:11.031Z,99.90
2019-04-04T19:15:42.319Z,99.90
2019-04-04T19:18:15.165Z,99.90
2019-04-04T19:20:54.078Z,99.90
2019-04-04T19:23:25.882Z,99.90
2019-04-04T19:25:57.811Z,99.90
2019-04-04T19:28:29.753Z,99.90
2019-04-04T19:31:01.691Z,99.90
2019-04-04T19:33:33.487Z,99.90
2019-04-04T19:36:05.437Z,99.90
2019-04-04T19:38:37.106Z,99.90
2019-04-04T19:41:08.849Z,99.90
2019-04-04T19:43:39.952Z,99.90
2019-04-04T19:46:11.672Z,99.90
2019-04-04T19:48:43.289Z,99.90
2019-04-04T19:51:14.568Z,99.90
2019-04-04T19:53:46.164Z,99.90
2019-04-04T19:56:17.738Z,99.90
2019-04-04T19:58:49.638Z,99.90
2019-04-04T20:01:21.556Z,99.90
2019-04-04T20:03:52.785Z,99.90
2019-04-04T20:06:23.803Z,99.90
2019-04-04T20:08:55.117Z,99.90
2019-04-04T20:11:26.863Z,99.90
2019-04-04T20:13:58.770Z,99.90
2019-04-04T20:16:30.295Z,99.90
2019-04-04T20:19:02.144Z,99.90
2019-04-04T20:21:33.722Z,99.90
2019-04-04T20:24:05.529Z,99.90
2019-04-04T20:26:37.182Z,99.90
2019-04-04T20:29:08.509Z,99.90
2019-04-04T20:31:40.014Z,99.90
2019-04-04T20:34:11.861Z,99.90
2019-04-04T20:36:43.644Z,99.90
2019-04-04T20:39:14.712Z,99.90
2019-04-04T20:41:45.718Z,99.90
2019-04-04T20:44:17.324Z,99.90
2019-04-04T20:46:49.438Z,99.90
2019-04-04T20:49:21.086Z,99.90
2019-04-04T20:51:52.739Z,99.90
2019-04-04T20:54:24.791Z,99.90
2019-04-04T20:56:56.536Z,99.90
2019-04-04T20:59:28.453Z,99.90
2019-04-04T21:02:00.032Z,99.90
2019-04-04T21:04:31.701Z,99.90
2019-04-04T21:07:03.067Z,99.90
2019-04-04T21:09:34.060Z,99.90
2019-04-04T21:12:05.705Z,99.90
2019-04-04T21:14:36.968Z,99.90
2019-04-04T21:17:08.258Z,99.90
2019-04-04T21:19:40.176Z,99.90
2019-04-04T21:22:11.773Z,99.90
2019-04-04T21:24:43.382Z,99.90
2019-04-04T21:27:14.675Z,99.90
2019-04-04T21:29:45.980Z,99.90
2019-04-04T21:32:17.347Z,99.90
2019-04-04T21:34:48.686Z,99.90
2019-04-04T21:37:19.972Z,99.90
2019-04-04T21:39:51.706Z,99.90
2019-04-04T21:42:22.734Z,99.90
2019-04-04T21:44:54.619Z,99.90
2019-04-04T21:47:26.232Z,99.90
2019-04-04T21:49:58.736Z,99.90
2019-04-04T21:52:30.720Z,99.90
2019-04-04T21:55:02.264Z,99.90
2019-04-04T21:57:34.051Z,99.90
2019-04-04T22:00:08.268Z,99.90
2019-04-04T22:02:41.278Z,99.90
2019-04-04T22:05:12.793Z,99.90
2019-04-04T22:07:44.095Z,99.90
2019-04-04T22:10:16.102Z,99.90
2019-04-04T22:12:48.006Z,99.90
2019-04-04T22:15:19.559Z,99.90
2019-04-04T22:17:51.337Z,99.90
2019-04-04T22:20:23.098Z,99.90
2019-04-04T22:22:54.767Z,99.90
2019-04-04T22:25:26.072Z,99.90
2019-04-04T22:27:57.665Z,99.90
2019-04-04T22:30:30.255Z,99.90
2019-04-04T22:33:02.043Z,99.90
2019-04-04T22:35:33.619Z,99.90
2019-04-04T22:38:05.513Z,99.90
2019-04-04T22:40:36.856Z,99.90
2019-04-04T22:43:08.558Z,99.90
2019-04-04T22:45:39.854Z,99.90
2019-04-04T22:48:11.108Z,99.90
2019-04-04T22:50:42.718Z,99.90
2019-04-04T22:53:14.010Z,99.90
2019-04-04T22:55:45.652Z,99.90
2019-04-04T22:58:27.628Z,99.90
2019-04-04T23:00:50.764Z,99.90
2019-04-04T23:03:23.360Z,99.90
2019-04-04T23:05:54.732Z,99.90
2019-04-04T23:08:26.396Z,99.90
2019-04-04T23:10:58.003Z,99.90
2019-04-04T23:13:29.649Z,99.90
2019-04-04T23:16:01.117Z,99.90
2019-04-04T23:18:34.287Z,99.90
2019-04-04T23:21:05.870Z,99.90
2019-04-04T23:23:37.765Z,99.90
2019-04-04T23:26:08.756Z,99.90
2019-04-04T23:28:39.768Z,99.90
2019-04-04T23:31:11.289Z,99.90
2019-04-04T23:33:42.407Z,99.90
2019-04-04T23:36:14.283Z,99.90
2019-04-04T23:38:45.543Z,99.90
2019-04-04T23:41:16.533Z,99.90
2019-04-04T23:43:49.537Z,99.90
2019-04-04T23:46:21.066Z,99.90
2019-04-04T23:48:52.351Z,99.90
2019-04-04T23:51:24.020Z,99.90
2019-04-04T23:53:56.345Z,99.90
2019-04-04T23:56:27.653Z,99.90
2019-04-04T23:58:59.241Z,99.90
